createdAt,value
2018-04-14T00:01:34.277Z,11.97
2018-04-14T00:04:05.324Z,12.73
2018-04-14T00:06:36.350Z,13.13
2018-04-14T00:09:07.366Z,13.80
2018-04-14T00:11:38.403Z,14.63
2018-04-14T00:14:09.411Z,14.27
2018-04-14T00:16:40.452Z,13.23
2018-04-14T00:19:11.461Z,14.17
2018-04-14T00:21:42.428Z,14.07
2018-04-14T00:24:13.505Z,13.63
2018-04-14T00:26:44.546Z,12.40
2018-04-14T00:29:15.577Z,13.37
2018-04-14T00:31:53.591Z,12.73
2018-04-14T00:34:24.600Z,13.77
2018-04-14T00:36:55.586Z,13.27
2018-04-14T00:39:26.553Z,13.37
2018-04-14T00:41:57.572Z,13.63
2018-04-14T00:44:28.530Z,13.87
2018-04-14T00:46:59.554Z,14.07
2018-04-14T00:49:30.560Z,15.23
2018-04-14T00:52:01.551Z,15.97
2018-04-14T00:54:32.584Z,15.63
2018-04-14T00:57:03.595Z,16.27
2018-04-14T00:59:34.626Z,16.97
2018-04-14T01:02:05.662Z,17.77
2018-04-14T01:04:36.703Z,16.50
2018-04-14T01:07:07.648Z,15.97
2018-04-14T01:09:38.650Z,16.57
2018-04-14T01:12:09.658Z,14.97
2018-04-14T01:14:40.696Z,15.33
2018-04-14T01:17:11.711Z,17.10
2018-04-14T01:19:42.764Z,16.77
2018-04-14T01:22:13.857Z,18.33
2018-04-14T01:24:44.891Z,17.47
2018-04-14T01:27:15.915Z,18.20
2018-04-14T01:29:46.916Z,19.43
2018-04-14T01:32:17.952Z,19.20
2018-04-14T01:34:48.953Z,19.27
2018-04-14T01:37:19.999Z,20.43
2018-04-14T01:39:50.969Z,20.80
2018-04-14T01:42:22.011Z,20.20
2018-04-14T01:44:53.057Z,19.83
2018-04-14T01:47:24.067Z,20.97
2018-04-14T01:49:55.135Z,20.90
2018-04-14T01:52:26.070Z,21.33
2018-04-14T01:54:57.059Z,22.23
2018-04-14T01:57:28.095Z,21.37
2018-04-14T01:59:59.167Z,22.53
2018-04-14T02:02:30.166Z,21.97
2018-04-14T02:05:01.138Z,23.57
2018-04-14T02:07:32.132Z,21.20
2018-04-14T02:10:03.198Z,23.23
2018-04-14T02:12:34.185Z,22.60
2018-04-14T02:15:05.201Z,22.53
2018-04-14T02:17:36.239Z,23.43
2018-04-14T02:20:07.241Z,24.37
2018-04-14T02:22:38.257Z,23.63
2018-04-14T02:25:09.222Z,23.47
2018-04-14T02:27:40.243Z,22.27
2018-04-14T02:30:11.275Z,22.33
2018-04-14T02:32:42.336Z,24.17
2018-04-14T02:35:13.390Z,25.00
2018-04-14T02:37:44.398Z,25.40
2018-04-14T02:40:15.395Z,24.10
2018-04-14T02:42:46.387Z,26.97
2018-04-14T02:45:17.365Z,26.40
2018-04-14T02:47:48.386Z,24.53
2018-04-14T02:50:19.394Z,25.60
2018-04-14T02:52:50.401Z,28.13
2018-04-14T02:55:21.420Z,29.13
2018-04-14T02:57:52.447Z,28.40
2018-04-14T03:00:23.487Z,28.03
2018-04-14T03:03:09.416Z,27.80
2018-04-14T03:05:40.450Z,26.70
2018-04-14T03:08:11.486Z,26.33
2018-04-14T03:10:42.464Z,27.20
2018-04-14T03:13:13.478Z,26.27
2018-04-14T03:15:44.490Z,24.17
2018-04-14T03:18:15.529Z,24.60
2018-04-14T03:20:46.531Z,25.20
2018-04-14T03:23:17.532Z,27.37
2018-04-14T03:25:48.589Z,27.10
2018-04-14T03:28:19.582Z,26.00
2018-04-14T03:30:50.581Z,25.40
2018-04-14T03:33:21.586Z,24.90
2018-04-14T03:35:52.600Z,25.50
2018-04-14T03:38:23.550Z,26.03
2018-04-14T03:40:54.512Z,26.80
2018-04-14T03:43:25.511Z,25.77
2018-04-14T03:45:56.518Z,26.00
2018-04-14T03:48:27.495Z,27.30
2018-04-14T03:50:58.506Z,28.20
2018-04-14T03:53:36.514Z,26.00
2018-04-14T03:56:07.537Z,24.97
2018-04-14T03:58:38.514Z,27.60
2018-04-14T04:01:09.496Z,27.87
2018-04-14T04:03:40.520Z,27.00
2018-04-14T04:06:11.507Z,27.87
2018-04-14T04:08:42.552Z,27.80
2018-04-14T04:11:13.589Z,28.80
2018-04-14T04:13:44.631Z,28.23
2018-04-14T04:16:15.597Z,28.13
2018-04-14T04:18:58.722Z,28.10
2018-04-14T04:21:42.150Z,27.80
2018-04-14T04:24:25.594Z,28.70
2018-04-14T04:26:56.596Z,27.63
2018-04-14T04:29:27.564Z,27.80
2018-04-14T04:31:58.640Z,27.03
2018-04-14T04:34:29.673Z,29.97
2018-04-14T04:37:00.681Z,27.27
2018-04-14T04:39:31.667Z,28.87
2018-04-14T04:42:02.690Z,26.10
2018-04-14T04:44:33.716Z,27.83
2018-04-14T04:47:04.760Z,26.73
2018-04-14T04:49:35.730Z,27.00
2018-04-14T04:52:06.776Z,25.53
2018-04-14T04:54:37.800Z,25.77
2018-04-14T04:57:08.807Z,27.17
2018-04-14T04:59:39.832Z,26.73
2018-04-14T05:02:10.862Z,25.17
2018-04-14T05:04:41.901Z,25.17
2018-04-14T05:07:12.921Z,24.57
2018-04-14T05:09:43.966Z,24.97
2018-04-14T05:12:15.890Z,22.60
2018-04-14T05:14:47.101Z,23.43
2018-04-14T05:17:20.010Z,23.50
2018-04-14T05:19:51.090Z,22.27
2018-04-14T05:22:22.126Z,22.10
2018-04-14T05:24:53.102Z,20.87
2018-04-14T05:27:24.116Z,20.87
2018-04-14T05:29:55.176Z,20.33
2018-04-14T05:32:26.248Z,21.13
2018-04-14T05:34:57.223Z,20.47
2018-04-14T05:37:28.252Z,19.97
2018-04-14T05:39:59.198Z,18.83
2018-04-14T05:42:30.181Z,18.93
2018-04-14T05:45:01.218Z,18.93
2018-04-14T05:47:32.201Z,19.10
2018-04-14T05:50:03.223Z,18.60
2018-04-14T05:52:34.210Z,18.90
2018-04-14T05:55:12.211Z,18.73
2018-04-14T05:57:43.185Z,20.73
2018-04-14T06:00:14.249Z,19.63
2018-04-14T06:02:45.282Z,18.80
2018-04-14T06:05:16.320Z,18.23
2018-04-14T06:07:47.342Z,20.03
2018-04-14T06:10:18.329Z,19.57
2018-04-14T06:12:49.287Z,21.30
2018-04-14T06:15:20.289Z,20.07
2018-04-14T06:17:51.266Z,21.43
2018-04-14T06:20:22.252Z,20.33
2018-04-14T06:22:53.316Z,20.80
2018-04-14T06:25:24.358Z,22.17
2018-04-14T06:27:55.372Z,22.10
2018-04-14T06:30:26.411Z,24.00
2018-04-14T06:32:57.432Z,20.67
2018-04-14T06:35:28.431Z,24.43
2018-04-14T06:37:59.420Z,23.53
2018-04-14T06:40:37.307Z,22.30
2018-04-14T06:43:08.306Z,22.67
2018-04-14T06:45:39.293Z,22.50
2018-04-14T06:48:10.276Z,21.00
2018-04-14T06:50:41.284Z,20.13
2018-04-14T06:53:12.223Z,20.03
2018-04-14T06:55:43.258Z,19.67
2018-04-14T06:58:14.308Z,19.30
2018-04-14T07:00:45.309Z,18.53
2018-04-14T07:03:16.333Z,19.13
2018-04-14T07:05:47.327Z,19.37
2018-04-14T07:08:18.366Z,17.57
2018-04-14T07:10:49.372Z,18.27
2018-04-14T07:13:20.404Z,17.93
2018-04-14T07:15:51.423Z,17.07
2018-04-14T07:18:22.473Z,15.55
2018-04-14T07:20:53.489Z,16.90
2018-04-14T07:23:24.535Z,16.25
2018-04-14T07:25:55.559Z,15.57
2018-04-14T07:28:26.666Z,15.93
2018-04-14T07:30:57.728Z,16.98
2018-04-14T07:33:28.744Z,15.73
2018-04-14T07:35:59.706Z,16.15
2018-04-14T07:38:30.757Z,15.27
2018-04-14T07:41:01.867Z,15.52
2018-04-14T07:43:32.854Z,18.83
2018-04-14T07:46:03.886Z,16.17
2018-04-14T07:48:34.924Z,16.20
2018-04-14T07:51:05.951Z,16.25
2018-04-14T07:53:36.924Z,14.82
2018-04-14T07:56:08.039Z,13.62
2018-04-14T07:58:39.107Z,14.82
2018-04-14T08:01:10.131Z,25.02
2018-04-14T08:03:41.292Z,14.80
2018-04-14T08:06:12.455Z,15.35
2018-04-14T08:08:43.495Z,13.65
2018-04-14T08:11:14.516Z,13.55
2018-04-14T08:13:45.634Z,14.50
2018-04-14T08:16:16.620Z,14.25
2018-04-14T08:18:47.726Z,14.52
2018-04-14T08:21:18.729Z,14.75
2018-04-14T08:23:49.877Z,13.90
2018-04-14T08:26:20.906Z,14.40
2018-04-14T08:28:51.980Z,13.73
2018-04-14T08:31:23.021Z,14.02
2018-04-14T08:33:54.054Z,14.23
2018-04-14T08:36:25.128Z,14.13
2018-04-14T08:38:56.157Z,15.32
2018-04-14T08:41:27.211Z,15.68
2018-04-14T08:43:58.223Z,15.30
2018-04-14T08:46:29.230Z,15.63
2018-04-14T08:49:00.276Z,14.93
2018-04-14T08:51:31.319Z,14.70
2018-04-14T08:54:03.198Z,14.98
2018-04-14T08:56:34.185Z,15.68
2018-04-14T08:59:05.183Z,15.95
2018-04-14T09:01:36.190Z,15.57
2018-04-14T09:04:07.310Z,15.23
2018-04-14T09:06:38.374Z,15.35
2018-04-14T09:09:09.388Z,15.68
2018-04-14T09:11:40.428Z,15.48
2018-04-14T09:14:11.441Z,15.68
2018-04-14T09:16:42.475Z,15.40
2018-04-14T09:19:13.526Z,13.23
2018-04-14T09:21:44.543Z,21.30
2018-04-14T09:24:15.594Z,14.25
2018-04-14T09:26:46.609Z,13.27
2018-04-14T09:29:17.670Z,13.13
2018-04-14T09:31:48.692Z,13.45
2018-04-14T09:34:19.679Z,13.55
2018-04-14T09:36:50.666Z,13.23
2018-04-14T09:39:21.669Z,12.68
2018-04-14T09:41:52.679Z,11.38
2018-04-14T09:44:23.678Z,10.95
2018-04-14T09:46:54.652Z,11.07
2018-04-14T09:49:25.655Z,11.23
2018-04-14T09:51:56.698Z,11.48
2018-04-14T09:54:27.711Z,11.18
2018-04-14T09:56:58.727Z,10.50
2018-04-14T09:59:30.040Z,10.85
2018-04-14T10:02:01.073Z,10.70
2018-04-14T10:04:33.131Z,10.55
2018-04-14T10:07:04.154Z,9.90
2018-04-14T10:09:35.167Z,9.85
2018-04-14T10:12:06.203Z,9.00
2018-04-14T10:14:37.224Z,8.65
2018-04-14T10:17:08.265Z,8.65
2018-04-14T10:19:39.351Z,9.25
2018-04-14T10:22:10.409Z,8.63
2018-04-14T10:24:41.432Z,8.95
2018-04-14T10:27:12.472Z,7.75
2018-04-14T10:29:43.541Z,8.25
2018-04-14T10:32:14.552Z,7.50
2018-04-14T10:34:45.555Z,7.53
2018-04-14T10:37:23.629Z,6.75
2018-04-14T10:39:54.665Z,7.22
2018-04-14T10:42:25.751Z,9.48
2018-04-14T10:44:56.822Z,5.35
2018-04-14T10:47:27.826Z,5.05
2018-04-14T10:49:58.866Z,6.22
2018-04-14T10:52:31.315Z,8.55
2018-04-14T10:55:04.406Z,7.05
2018-04-14T10:57:35.585Z,7.35
2018-04-14T11:00:06.699Z,6.68
2018-04-14T11:02:37.849Z,6.43
2018-04-14T11:05:08.874Z,6.22
2018-04-14T11:07:39.911Z,5.90
2018-04-14T11:10:10.881Z,6.50
2018-04-14T11:12:41.884Z,6.27
2018-04-14T11:15:12.941Z,6.40
2018-04-14T11:17:43.926Z,5.97
2018-04-14T11:20:15.958Z,5.27
2018-04-14T11:22:46.967Z,5.10
2018-04-14T11:25:18.008Z,5.70
2018-04-14T11:27:49.026Z,5.37
2018-04-14T11:30:20.043Z,5.20
2018-04-14T11:32:51.072Z,4.40
2018-04-14T11:35:22.085Z,5.73
2018-04-14T11:37:53.090Z,4.20
2018-04-14T11:40:24.086Z,4.23
2018-04-14T11:42:55.093Z,4.30
2018-04-14T11:45:26.135Z,4.10
2018-04-14T11:47:57.184Z,3.97
2018-04-14T11:50:28.206Z,12.57
2018-04-14T11:52:59.251Z,3.30
2018-04-14T11:55:30.312Z,4.03
2018-04-14T11:58:01.306Z,4.20
2018-04-14T12:00:32.358Z,3.67
2018-04-14T12:03:03.373Z,2.60
2018-04-14T12:05:34.375Z,3.00
2018-04-14T12:08:05.408Z,3.40
2018-04-14T12:10:36.408Z,2.33
2018-04-14T12:13:07.486Z,2.30
2018-04-14T12:15:45.448Z,2.27
2018-04-14T12:18:16.513Z,2.33
2018-04-14T12:20:47.499Z,2.03
2018-04-14T12:23:18.554Z,2.30
2018-04-14T12:25:49.614Z,2.17
2018-04-14T12:28:20.638Z,4.33
2018-04-14T12:30:51.620Z,2.10
2018-04-14T12:33:22.680Z,2.03
2018-04-14T12:35:53.676Z,1.80
2018-04-14T12:38:24.756Z,1.77
2018-04-14T12:40:55.832Z,2.80
2018-04-14T12:43:26.822Z,2.00
2018-04-14T12:45:57.846Z,2.07
2018-04-14T12:48:28.842Z,2.10
2018-04-14T12:50:59.892Z,1.93
2018-04-14T12:53:30.851Z,1.70
2018-04-14T12:56:01.893Z,1.80
2018-04-14T12:58:32.905Z,1.70
2018-04-14T13:01:03.903Z,1.73
2018-04-14T13:03:34.894Z,1.90
2018-04-14T13:06:05.954Z,2.97
2018-04-14T13:08:36.912Z,2.20
2018-04-14T13:11:07.906Z,2.03
2018-04-14T13:13:38.917Z,2.57
2018-04-14T13:16:09.981Z,2.50
2018-04-14T13:18:41.026Z,2.83
2018-04-14T13:21:12.038Z,2.57
2018-04-14T13:23:42.998Z,13.73
2018-04-14T13:26:14.011Z,2.60
2018-04-14T13:28:45.025Z,2.47
2018-04-14T13:31:16.007Z,2.30
2018-04-14T13:33:47.005Z,2.40
2018-04-14T13:36:18.056Z,2.90
2018-04-14T13:38:49.051Z,3.10
2018-04-14T13:41:20.177Z,2.73
2018-04-14T13:43:51.264Z,2.43
2018-04-14T13:46:22.318Z,2.90
2018-04-14T13:48:53.366Z,3.10
2018-04-14T13:51:24.380Z,2.50
2018-04-14T13:53:55.411Z,2.67
2018-04-14T13:56:26.427Z,2.67
2018-04-14T13:58:57.471Z,2.43
2018-04-14T14:01:28.437Z,2.60
2018-04-14T14:03:59.450Z,2.47
2018-04-14T14:06:30.496Z,2.50
2018-04-14T14:09:01.452Z,2.80
2018-04-14T14:11:32.448Z,2.53
2018-04-14T14:14:03.445Z,2.53
2018-04-14T14:16:34.451Z,2.50
2018-04-14T14:19:05.486Z,2.50
2018-04-14T14:21:36.528Z,2.30
2018-04-14T14:24:07.562Z,2.23
2018-04-14T14:26:38.555Z,2.10
2018-04-14T14:29:09.578Z,2.03
2018-04-14T14:31:40.654Z,9.70
2018-04-14T14:34:11.632Z,3.57
2018-04-14T14:36:42.682Z,3.67
2018-04-14T14:39:13.689Z,2.90
2018-04-14T14:41:44.725Z,3.23
2018-04-14T14:44:15.771Z,3.07
2018-04-14T14:46:46.738Z,2.90
2018-04-14T14:49:17.784Z,3.20
2018-04-14T14:51:48.791Z,2.87
2018-04-14T14:54:19.826Z,2.67
2018-04-14T14:56:50.808Z,3.30
2018-04-14T14:59:21.793Z,2.73
2018-04-14T15:01:52.884Z,2.53
2018-04-14T15:04:23.885Z,3.23
2018-04-14T15:06:54.909Z,2.60
2018-04-14T15:09:25.934Z,3.27
2018-04-14T15:11:56.945Z,3.03
2018-04-14T15:14:27.988Z,3.20
2018-04-14T15:16:58.984Z,3.53
2018-04-14T15:19:30.001Z,3.10
2018-04-14T15:22:01.048Z,2.80
2018-04-14T15:24:32.060Z,2.80
2018-04-14T15:27:03.073Z,3.00
2018-04-14T15:29:34.051Z,3.50
2018-04-14T15:32:05.064Z,2.93
2018-04-14T15:34:36.072Z,3.40
2018-04-14T15:37:07.092Z,2.90
2018-04-14T15:39:38.068Z,3.27
2018-04-14T15:42:09.062Z,2.67
2018-04-14T15:44:40.065Z,3.03
2018-04-14T15:47:11.030Z,3.23
2018-04-14T15:49:42.051Z,3.10
2018-04-14T15:52:13.083Z,2.90
2018-04-14T15:54:44.082Z,3.97
2018-04-14T15:57:15.075Z,4.33
2018-04-14T15:59:46.065Z,3.73
2018-04-14T16:02:17.142Z,4.77
2018-04-14T16:04:48.140Z,4.27
2018-04-14T16:07:19.150Z,4.53
2018-04-14T16:09:50.186Z,4.50
2018-04-14T16:12:21.238Z,4.43
2018-04-14T16:14:52.283Z,4.20
2018-04-14T16:17:23.328Z,4.33
2018-04-14T16:19:54.362Z,5.33
2018-04-14T16:22:25.670Z,4.97
2018-04-14T16:24:56.679Z,4.63
2018-04-14T16:27:27.725Z,5.43
2018-04-14T16:29:58.768Z,6.97
2018-04-14T16:32:29.919Z,6.17
2018-04-14T16:35:00.956Z,6.87
2018-04-14T16:37:32.039Z,6.67
2018-04-14T16:40:03.067Z,6.33
2018-04-14T16:42:34.126Z,5.97
2018-04-14T16:45:05.182Z,6.20
2018-04-14T16:47:36.235Z,5.80
2018-04-14T16:50:07.278Z,6.70
2018-04-14T16:52:38.265Z,6.87
2018-04-14T16:55:09.310Z,6.47
2018-04-14T16:57:40.365Z,6.70
2018-04-14T17:00:11.395Z,6.57
2018-04-14T17:02:42.386Z,8.03
2018-04-14T17:05:13.431Z,5.97
2018-04-14T17:07:44.441Z,6.00
2018-04-14T17:10:15.493Z,6.60
2018-04-14T17:12:46.515Z,5.97
2018-04-14T17:15:17.501Z,5.77
2018-04-14T17:17:48.507Z,6.43
2018-04-14T17:20:19.515Z,5.87
2018-04-14T17:22:50.552Z,5.50
2018-04-14T17:25:21.593Z,5.40
2018-04-14T17:27:52.598Z,5.47
2018-04-14T17:30:23.600Z,5.10
2018-04-14T17:32:54.657Z,5.47
2018-04-14T17:35:25.715Z,6.20
2018-04-14T17:37:56.706Z,5.77
2018-04-14T17:40:27.764Z,5.93
2018-04-14T17:42:58.791Z,7.27
2018-04-14T17:45:29.859Z,10.47
2018-04-14T17:48:00.855Z,5.97
2018-04-14T17:50:31.796Z,5.90
2018-04-14T17:53:02.826Z,5.80
2018-04-14T17:55:33.794Z,6.10
2018-04-14T17:58:04.844Z,5.67
2018-04-14T18:00:35.879Z,6.53
2018-04-14T18:03:06.933Z,6.73
2018-04-14T18:05:37.953Z,6.97
2018-04-14T18:08:09.041Z,7.97
2018-04-14T18:10:40.054Z,8.20
2018-04-14T18:13:11.063Z,7.33
2018-04-14T18:15:42.056Z,6.80
2018-04-14T18:18:13.076Z,7.73
2018-04-14T18:20:44.111Z,8.33
2018-04-14T18:23:15.124Z,8.83
2018-04-14T18:25:46.132Z,8.10
2018-04-14T18:28:17.138Z,8.43
2018-04-14T18:30:48.147Z,8.23
2018-04-14T18:33:19.126Z,8.07
2018-04-14T18:35:50.145Z,7.27
2018-04-14T18:38:21.155Z,7.40
2018-04-14T18:40:52.179Z,6.87
2018-04-14T18:43:23.206Z,8.07
2018-04-14T18:45:54.186Z,7.10
2018-04-14T18:48:25.217Z,7.67
2018-04-14T18:50:56.288Z,7.83
2018-04-14T18:53:27.303Z,6.63
2018-04-14T18:55:58.321Z,7.10
2018-04-14T18:58:29.546Z,7.90
2018-04-14T19:01:00.556Z,7.90
2018-04-14T19:03:31.576Z,8.60
2018-04-14T19:06:02.588Z,7.33
2018-04-14T19:08:33.541Z,8.20
2018-04-14T19:11:04.566Z,8.13
2018-04-14T19:13:35.569Z,7.90
2018-04-14T19:16:06.676Z,8.27
2018-04-14T19:18:37.661Z,9.00
2018-04-14T19:21:08.690Z,7.37
2018-04-14T19:23:39.734Z,7.67
2018-04-14T19:26:10.795Z,14.47
2018-04-14T19:28:41.777Z,7.57
2018-04-14T19:31:12.790Z,7.80
2018-04-14T19:33:43.804Z,7.30
2018-04-14T19:36:14.764Z,7.30
2018-04-14T19:38:45.772Z,7.23
2018-04-14T19:41:16.741Z,7.07
2018-04-14T19:43:47.752Z,6.97
2018-04-14T19:46:18.752Z,7.53
2018-04-14T19:48:49.761Z,7.20
2018-04-14T19:51:20.865Z,10.27
2018-04-14T19:53:51.871Z,7.90
2018-04-14T19:56:22.913Z,7.03
2018-04-14T19:58:53.970Z,7.57
2018-04-14T20:01:24.973Z,6.70
2018-04-14T20:04:02.904Z,6.30
2018-04-14T20:06:33.960Z,6.63
2018-04-14T20:09:04.990Z,6.13
2018-04-14T20:11:35.985Z,6.40
2018-04-14T20:14:07.010Z,6.53
2018-04-14T20:16:38.062Z,6.03
2018-04-14T20:19:09.087Z,5.53
2018-04-14T20:21:40.120Z,5.80
2018-04-14T20:24:11.122Z,7.00
2018-04-14T20:26:42.157Z,6.50
2018-04-14T20:29:13.133Z,6.27
2018-04-14T20:31:44.094Z,6.10
2018-04-14T20:34:15.056Z,6.50
2018-04-14T20:36:46.062Z,6.30
2018-04-14T20:39:17.062Z,6.43
2018-04-14T20:41:48.066Z,6.67
2018-04-14T20:44:19.072Z,6.30
2018-04-14T20:46:50.081Z,7.13
2018-04-14T20:49:21.066Z,6.37
2018-04-14T20:51:52.107Z,6.00
2018-04-14T20:54:23.120Z,7.30
2018-04-14T20:56:54.140Z,6.77
2018-04-14T20:59:25.140Z,6.80
2018-04-14T21:01:56.148Z,6.40
2018-04-14T21:04:27.179Z,7.20
2018-04-14T21:06:58.171Z,6.80
2018-04-14T21:09:29.146Z,5.93
2018-04-14T21:12:00.182Z,6.87
2018-04-14T21:14:31.160Z,7.43
2018-04-14T21:17:05.034Z,7.33
2018-04-14T21:19:36.048Z,8.50
2018-04-14T21:22:07.111Z,7.83
2018-04-14T21:24:38.082Z,7.00
2018-04-14T21:27:09.134Z,7.80
2018-04-14T21:29:40.104Z,7.63
2018-04-14T21:32:11.073Z,6.97
2018-04-14T21:34:42.068Z,6.57
2018-04-14T21:37:13.072Z,7.67
2018-04-14T21:39:44.098Z,7.27
2018-04-14T21:42:15.095Z,6.83
2018-04-14T21:44:46.707Z,6.80
2018-04-14T21:47:17.724Z,7.37
2018-04-14T21:49:48.731Z,7.63
2018-04-14T21:52:19.709Z,7.43
2018-04-14T21:54:50.682Z,7.43
2018-04-14T21:57:21.682Z,9.17
2018-04-14T21:59:52.689Z,7.40
2018-04-14T22:02:23.690Z,8.37
2018-04-14T22:04:54.694Z,7.53
2018-04-14T22:07:25.675Z,8.13
2018-04-14T22:09:56.651Z,7.83
2018-04-14T22:12:27.655Z,7.97
2018-04-14T22:14:58.698Z,7.27
2018-04-14T22:17:29.671Z,7.90
2018-04-14T22:20:00.715Z,6.90
2018-04-14T22:22:32.240Z,7.23
2018-04-14T22:25:03.267Z,7.30
2018-04-14T22:27:34.261Z,7.20
2018-04-14T22:30:05.323Z,6.33
2018-04-14T22:32:36.282Z,7.30
2018-04-14T22:35:07.318Z,6.93
2018-04-14T22:37:38.329Z,7.57
2018-04-14T22:40:09.340Z,8.80
2018-04-14T22:42:40.360Z,7.57
2018-04-14T22:45:11.392Z,7.73
2018-04-14T22:47:42.427Z,6.63
2018-04-14T22:50:13.387Z,7.93
2018-04-14T22:52:44.473Z,7.00
2018-04-14T22:55:15.494Z,6.53
2018-04-14T22:57:46.467Z,7.33
2018-04-14T23:00:17.442Z,6.93
2018-04-14T23:02:48.490Z,6.53
2018-04-14T23:05:19.515Z,7.30
2018-04-14T23:07:50.551Z,7.53
2018-04-14T23:10:21.562Z,6.77
2018-04-14T23:12:52.527Z,6.20
2018-04-14T23:15:23.488Z,6.37
2018-04-14T23:17:54.477Z,6.50
2018-04-14T23:20:25.516Z,6.37
2018-04-14T23:22:56.543Z,6.40
2018-04-14T23:25:27.580Z,6.43
2018-04-14T23:27:58.586Z,6.57
2018-04-14T23:30:29.601Z,6.83
2018-04-14T23:33:00.692Z,6.67
2018-04-14T23:35:31.719Z,6.70
2018-04-14T23:38:02.733Z,6.17
2018-04-14T23:40:33.782Z,5.93
2018-04-14T23:43:04.819Z,6.03
2018-04-14T23:45:35.795Z,5.67
2018-04-14T23:48:06.835Z,6.73
2018-04-14T23:50:37.863Z,7.57
2018-04-14T23:53:08.836Z,6.80
2018-04-14T23:55:39.820Z,7.10
2018-04-14T23:58:10.827Z,6.53
